• Join FlightAware (Why Join?)
  • Login
  • US Flag GB Flag 
17:11 EDT


 

Airport Tracker/Info


-or-


 

Live Flight TrackerFlight Track Log ✈ N400PU ✈ 29-Nov-2012 ✈ KFWA - KAMW

Flight Track Log - Related Links

Times and Time Zones

All times are in EST time to prevent confusion due to time zone crossing. See the N400PU flight status page for this flight to view local times or setup timezone preferences in your user account.

Time Position Orientation Groundspeed Altitude Reporting Facility
EST Latitude Longitude Course Direction KTS MPH feet Rate Location/Type
18:20 40.9414 -85.3336 281° West 247 284 6,600  Level Chicago Center
18:21 40.9631 -85.4147 290° West 240 276 9,400 2,340 Climbing Chicago Center
18:22 40.9767 -85.5047 281° West 235 270 11,300 1,800 Climbing Chicago Center
18:23 40.9947 -85.6108 283° West 269 310 13,100 2,160 Climbing Chicago Center
18:24 41.0128 -85.7172 283° West 296 341 15,700 2,340 Climbing Chicago Center
18:25 41.0587 -85.8609 281° West  Level FlightAware Approximate
18:25 41.0306 -85.8208 283° West 301 346 17,800  Level Chicago Center
18:26 41.0506 -85.9300 284° West 301 346 18,800 1,320 Climbing Chicago Center
18:27 41.0683 -86.0392 282° West 306 352 20,500 1,680 Climbing Chicago Center
18:28 41.0883 -86.1539 283° West 313 360 22,200 1,560 Climbing Chicago Center
18:29 41.1039 -86.2661 280° West 313 360 23,700 1,500 Climbing Chicago Center
18:30 41.1236 -86.3811 283° West 313 360 25,200 1,440 Climbing Chicago Center
18:31 41.1453 -86.4931 284° West 313 360 26,600 1,260 Climbing Chicago Center
18:32 41.1606 -86.6028 281° West 313 360 27,800 1,020 Climbing Chicago Center
18:33 41.1822 -86.7317 283° West 318 366 28,700 720 Climbing Chicago Center
18:34 41.1994 -86.8442 282° West 318 366 29,300 660 Climbing Chicago Center
18:35 41.2164 -86.9511 282° West 313 360 30,100 840 Climbing Chicago Center
18:36 41.2333 -87.0636 281° West 313 360 31,000 780 Climbing Chicago Center
18:37 41.2481 -87.1792 280° West 313 360 31,700 720 Climbing Chicago Center
18:38 41.2647 -87.2975 281° West 318 366 32,500 780 Climbing Chicago Center
18:39 41.2836 -87.4156 282° West 318 366 33,300 840 Climbing Chicago Center
18:40 41.2981 -87.5342 279° West 323 372 34,200 780 Climbing Chicago Center
18:41 41.3144 -87.6497 281° West 329 379 34,900 660 Climbing Chicago Center
18:42 41.3306 -87.7656 281° West 329 379 35,600 600 Climbing Chicago Center
18:43 41.3467 -87.8839 280° West 329 379 36,200 600 Climbing Chicago Center
18:44 41.3692 -88.0053 284° West 335 386 36,800 600 Climbing Chicago Center
18:45 41.3850 -88.1322 279° West 335 386 37,500 600 Climbing Chicago Center
18:46 41.3989 -88.2619 278° West 335 386 38,000 240 Climbing Chicago Center
18:47 41.4167 -88.3864 281° West 347 399 38,000  Level Chicago Center
18:48 41.4325 -88.5192 279° West 357 411 38,000  Level Chicago Center
18:49 41.4519 -88.6544 281° West 368 423 38,000  Level Chicago Center
18:50 41.4717 -88.7900 281° West 373 429 38,000  Level Chicago Center
18:51 41.4867 -88.9286 278° West 373 429 38,000  Level Chicago Center
18:52 41.5039 -89.0617 280° West 373 429 38,000  Level Chicago Center
18:53 41.5186 -89.1697 280° West 373 429 38,000  Level Chicago Center
18:54 41.5375 -89.3389 279° West 375 432 38,000  Level Chicago Center
18:55 41.5519 -89.4747 278° West 380 437 38,000  Level Chicago Center
18:56 41.5747 -89.6053 283° West 380 437 38,000  Level Chicago Center
18:57 41.5931 -89.7442 280° West 375 432 38,000  Level Chicago Center
18:58 41.6092 -89.8803 279° West 370 426 38,000  Level Chicago Center
18:59 41.6231 -90.0194 278° West 370 426 38,000  Level Chicago Center
19:00 41.6411 -90.1583 280° West 370 426 38,000 -120 Level Chicago Center
19:01 41.6567 -90.2947 279° West 370 426 37,800 -600 Descending Chicago Center
19:02 41.6722 -90.4311 279° West 370 426 36,900 -960 Descending Chicago Center
19:03 41.6875 -90.5678 279° West 370 426 35,900 -1,020 Descending Chicago Center
19:04 41.7047 -90.7017 280° West 370 426 34,900 -1,140 Descending Chicago Center
19:05 41.7175 -90.8408 277° West 375 432 33,700 -1,380 Descending Chicago Center
19:06 41.7325 -90.9806 278° West 380 437 32,200 -1,500 Descending Chicago Center
19:07 41.7489 -91.1228 279° West 385 443 30,700 -1,500 Descending Chicago Center
19:08 41.7656 -91.2653 279° West 390 449 29,200 -1,500 Descending Chicago Center
19:09 41.7797 -91.4106 277° West 390 449 27,800 -1,440 Descending Chicago Center
19:10 41.7958 -91.5531 279° West 390 449 26,400 -1,440 Descending Chicago Center
19:11 41.8114 -91.7094 278° West 400 460 25,000 -1,500 Descending Chicago Center
19:12 41.8272 -91.8522 279° West 400 460 23,500 -1,380 Descending Chicago Center
19:13 41.8386 -91.9950 276° West 402 463 22,300 -1,200 Descending Chicago Center
19:14 41.8561 -92.1378 279° West 397 457 21,200 -1,140 Descending Chicago Center
19:15 41.8692 -92.2778 277° West 386 444 20,100 -1,140 Descending Chicago Center
19:16 41.8800 -92.4206 276° West 386 444 19,000 -1,140 Descending Chicago Center
19:17 41.8931 -92.5581 277° West 386 444 17,900 -1,020 Descending Chicago Center
19:18 41.9031 -92.6456 279° West 379 436 17,300 -1,080 Descending Minneapolis Center
19:19 41.9189 -92.8103 277° West 376 433 16,000 -1,080 Descending Minneapolis Center
19:20 41.9317 -92.9206 279° West 364 419 15,100 -1,080 Descending Minneapolis Center
19:21 41.9583 -93.0589 285° West 346 398 13,900 -1,440 Descending Minneapolis Center
19:22 41.9836 -93.1744 286° West 330 380 12,200 -1,680 Descending Minneapolis Center
19:23 42.0275 -93.2622 304° West 289 333 10,500 -2,040 Descending Minneapolis Center
19:24 42.0647 -93.3425 302° West 267 307 8,100 -2,520 Descending Minneapolis Center
19:25 42.1083 -93.4436 300° West 263 303 5,400 -1,920 Descending Minneapolis Center
19:26 42.1406 -93.5167 301° West 262 302 4,200 -1,080 Descending Minneapolis Center
19:27 42.1144 -93.5597 231° Southwest 171 197 3,100 -780 Descending Minneapolis Center
19:28 42.0819 -93.5767 201° Southwest 133 153 2,600 -540 Descending Minneapolis Center